sensor_id;sensor_type;location;lat;lon;timestamp;temperature;humidity
67050;DHT22;53955;52.442;13.284;2023-03-01T00:01:47;3.40;45.50
67050;DHT22;53955;52.442;13.284;2023-03-01T00:04:14;3.30;46.00
67050;DHT22;53955;52.442;13.284;2023-03-01T00:06:43;3.40;46.20
67050;DHT22;53955;52.442;13.284;2023-03-01T00:09:11;3.30;46.20
67050;DHT22;53955;52.442;13.284;2023-03-01T00:11:38;3.30;46.40
67050;DHT22;53955;52.442;13.284;2023-03-01T00:14:04;3.40;45.80
67050;DHT22;53955;52.442;13.284;2023-03-01T00:16:36;3.30;45.40
67050;DHT22;53955;52.442;13.284;2023-03-01T00:19:04;3.20;45.80
67050;DHT22;53955;52.442;13.284;2023-03-01T00:21:31;3.00;45.80
67050;DHT22;53955;52.442;13.284;2023-03-01T00:23:58;3.10;46.20
67050;DHT22;53955;52.442;13.284;2023-03-01T00:26:26;3.40;46.00
67050;DHT22;53955;52.442;13.284;2023-03-01T00:28:53;3.20;44.90
67050;DHT22;53955;52.442;13.284;2023-03-01T00:31:22;3.20;45.50
67050;DHT22;53955;52.442;13.284;2023-03-01T00:33:52;3.00;45.70
67050;DHT22;53955;52.442;13.284;2023-03-01T00:36:19;2.90;46.20
67050;DHT22;53955;52.442;13.284;2023-03-01T00:38:45;3.20;45.50
67050;DHT22;53955;52.442;13.284;2023-03-01T00:41:15;2.90;45.70
67050;DHT22;53955;52.442;13.284;2023-03-01T00:43:43;2.90;45.70
67050;DHT22;53955;52.442;13.284;2023-03-01T00:46:12;2.80;46.50
67050;DHT22;53955;52.442;13.284;2023-03-01T00:48:39;2.90;46.70
67050;DHT22;53955;52.442;13.284;2023-03-01T00:51:07;3.20;45.40
67050;DHT22;53955;52.442;13.284;2023-03-01T00:53:33;3.20;45.20
67050;DHT22;53955;52.442;13.284;2023-03-01T00:56:00;3.00;45.40
67050;DHT22;53955;52.442;13.284;2023-03-01T00:58:29;2.90;46.10
67050;DHT22;53955;52.442;13.284;2023-03-01T01:00:56;2.80;46.60
67050;DHT22;53955;52.442;13.284;2023-03-01T01:03:23;2.80;46.10
67050;DHT22;53955;52.442;13.284;2023-03-01T01:05:50;2.60;46.60
67050;DHT22;53955;52.442;13.284;2023-03-01T01:08:17;2.70;46.30
67050;DHT22;53955;52.442;13.284;2023-03-01T01:10:43;2.70;46.10
67050;DHT22;53955;52.442;13.284;2023-03-01T01:13:10;2.60;46.40
67050;DHT22;53955;52.442;13.284;2023-03-01T01:15:38;2.70;47.10
67050;DHT22;53955;52.442;13.284;2023-03-01T01:18:06;2.80;47.10
67050;DHT22;53955;52.442;13.284;2023-03-01T01:20:34;2.60;47.00
67050;DHT22;53955;52.442;13.284;2023-03-01T01:23:01;2.80;47.40
67050;DHT22;53955;52.442;13.284;2023-03-01T01:25:28;2.70;46.90
67050;DHT22;53955;52.442;13.284;2023-03-01T01:27:54;2.80;47.20
67050;DHT22;53955;52.442;13.284;2023-03-01T01:30:21;2.50;47.10
67050;DHT22;53955;52.442;13.284;2023-03-01T01:32:49;2.50;46.70
67050;DHT22;53955;52.442;13.284;2023-03-01T01:35:15;2.60;46.70
67050;DHT22;53955;52.442;13.284;2023-03-01T01:37:42;2.50;46.70
67050;DHT22;53955;52.442;13.284;2023-03-01T01:40:10;2.50;47.10
67050;DHT22;53955;52.442;13.284;2023-03-01T01:42:37;2.60;47.10
67050;DHT22;53955;52.442;13.284;2023-03-01T01:45:26;2.60;47.00
67050;DHT22;53955;52.442;13.284;2023-03-01T01:47:57;2.60;46.90
67050;DHT22;53955;52.442;13.284;2023-03-01T01:50:25;2.60;47.70
67050;DHT22;53955;52.442;13.284;2023-03-01T01:52:54;2.50;46.90
67050;DHT22;53955;52.442;13.284;2023-03-01T01:55:23;2.60;47.10
67050;DHT22;53955;52.442;13.284;2023-03-01T01:57:52;2.50;47.60
67050;DHT22;53955;52.442;13.284;2023-03-01T02:00:24;2.70;47.40
67050;DHT22;53955;52.442;13.284;2023-03-01T02:02:57;2.80;47.60
67050;DHT22;53955;52.442;13.284;2023-03-01T02:05:28;2.60;47.60
67050;DHT22;53955;52.442;13.284;2023-03-01T02:07:58;2.60;46.60
67050;DHT22;53955;52.442;13.284;2023-03-01T02:10:26;2.70;46.70
67050;DHT22;53955;52.442;13.284;2023-03-01T02:12:54;2.50;47.20
67050;DHT22;53955;52.442;13.284;2023-03-01T02:15:22;2.60;47.00
67050;DHT22;53955;52.442;13.284;2023-03-01T02:17:49;2.50;47.40
67050;DHT22;53955;52.442;13.284;2023-03-01T02:20:25;2.40;47.80
67050;DHT22;53955;52.442;13.284;2023-03-01T02:22:53;2.30;47.80
67050;DHT22;53955;52.442;13.284;2023-03-01T02:25:27;2.40;47.40
67050;DHT22;53955;52.442;13.284;2023-03-01T02:27:59;2.50;47.40
67050;DHT22;53955;52.442;13.284;2023-03-01T02:30:31;2.40;48.10
67050;DHT22;53955;52.442;13.284;2023-03-01T02:33:00;2.60;48.10
67050;DHT22;53955;52.442;13.284;2023-03-01T02:35:32;2.50;48.00
67050;DHT22;53955;52.442;13.284;2023-03-01T02:38:01;2.40;47.80
67050;DHT22;53955;52.442;13.284;2023-03-01T02:40:28;2.40;47.20
67050;DHT22;53955;52.442;13.284;2023-03-01T02:42:58;2.80;47.00
67050;DHT22;53955;52.442;13.284;2023-03-01T02:45:26;2.80;46.30
67050;DHT22;53955;52.442;13.284;2023-03-01T02:47:55;2.70;46.10
67050;DHT22;53955;52.442;13.284;2023-03-01T02:50:42;2.60;46.10
67050;DHT22;53955;52.442;13.284;2023-03-01T02:53:14;2.70;46.90
67050;DHT22;53955;52.442;13.284;2023-03-01T02:55:42;2.40;46.10
67050;DHT22;53955;52.442;13.284;2023-03-01T02:58:09;2.40;46.50
67050;DHT22;53955;52.442;13.284;2023-03-01T03:00:38;2.30;47.00
67050;DHT22;53955;52.442;13.284;2023-03-01T03:03:14;2.10;47.50
67050;DHT22;53955;52.442;13.284;2023-03-01T03:05:41;2.00;48.50
67050;DHT22;53955;52.442;13.284;2023-03-01T03:08:08;2.20;48.60
67050;DHT22;53955;52.442;13.284;2023-03-01T03:10:35;2.00;48.60
67050;DHT22;53955;52.442;13.284;2023-03-01T03:13:03;2.00;48.70
67050;DHT22;53955;52.442;13.284;2023-03-01T03:15:30;2.10;48.90
67050;DHT22;53955;52.442;13.284;2023-03-01T03:17:57;2.20;48.10
67050;DHT22;53955;52.442;13.284;2023-03-01T03:20:26;1.90;48.60
67050;DHT22;53955;52.442;13.284;2023-03-01T03:22:53;2.10;48.00
67050;DHT22;53955;52.442;13.284;2023-03-01T03:25:21;2.20;48.30
67050;DHT22;53955;52.442;13.284;2023-03-01T03:27:48;2.10;48.90
67050;DHT22;53955;52.442;13.284;2023-03-01T03:30:15;2.00;48.60
67050;DHT22;53955;52.442;13.284;2023-03-01T03:32:43;2.10;49.10
67050;DHT22;53955;52.442;13.284;2023-03-01T03:35:18;2.00;48.80
67050;DHT22;53955;52.442;13.284;2023-03-01T03:37:46;2.10;48.60
67050;DHT22;53955;52.442;13.284;2023-03-01T03:40:29;2.00;48.80
67050;DHT22;53955;52.442;13.284;2023-03-01T03:42:56;2.10;48.50
67050;DHT22;53955;52.442;13.284;2023-03-01T03:45:23;2.00;48.20
67050;DHT22;53955;52.442;13.284;2023-03-01T03:47:49;1.90;48.30
67050;DHT22;53955;52.442;13.284;2023-03-01T03:50:17;1.80;48.50
67050;DHT22;53955;52.442;13.284;2023-03-01T03:52:45;1.90;49.00
67050;DHT22;53955;52.442;13.284;2023-03-01T03:55:12;1.80;49.10
67050;DHT22;53955;52.442;13.284;2023-03-01T03:57:40;2.00;48.70
67050;DHT22;53955;52.442;13.284;2023-03-01T04:00:10;2.20;48.20
67050;DHT22;53955;52.442;13.284;2023-03-01T04:02:38;2.00;47.90
67050;DHT22;53955;52.442;13.284;2023-03-01T04:05:06;2.00;48.50
67050;DHT22;53955;52.442;13.284;2023-03-01T04:07:33;1.90;47.70
67050;DHT22;53955;52.442;13.284;2023-03-01T04:10:01;1.90;48.90
67050;DHT22;53955;52.442;13.284;2023-03-01T04:12:28;1.90;49.00
67050;DHT22;53955;52.442;13.284;2023-03-01T04:14:54;1.70;49.60
67050;DHT22;53955;52.442;13.284;2023-03-01T04:17:21;1.90;49.70
67050;DHT22;53955;52.442;13.284;2023-03-01T04:19:47;1.90;49.60
67050;DHT22;53955;52.442;13.284;2023-03-01T04:22:14;1.80;49.00
67050;DHT22;53955;52.442;13.284;2023-03-01T04:24:42;1.80;49.90
67050;DHT22;53955;52.442;13.284;2023-03-01T04:27:11;1.70;50.10
67050;DHT22;53955;52.442;13.284;2023-03-01T04:29:37;1.80;49.70
67050;DHT22;53955;52.442;13.284;2023-03-01T04:32:04;1.70;49.70
67050;DHT22;53955;52.442;13.284;2023-03-01T04:34:31;3.00;76.10
67050;DHT22;53955;52.442;13.284;2023-03-01T04:36:57;2.80;48.90
67050;DHT22;53955;52.442;13.284;2023-03-01T04:39:24;2.30;47.50
67050;DHT22;53955;52.442;13.284;2023-03-01T04:41:50;2.30;48.90
67050;DHT22;53955;52.442;13.284;2023-03-01T04:44:19;2.10;48.70
67050;DHT22;53955;52.442;13.284;2023-03-01T04:46:48;1.90;49.40
67050;DHT22;53955;52.442;13.284;2023-03-01T04:49:15;1.80;50.00
67050;DHT22;53955;52.442;13.284;2023-03-01T04:51:42;1.90;49.60
67050;DHT22;53955;52.442;13.284;2023-03-01T04:54:09;1.70;49.80
67050;DHT22;53955;52.442;13.284;2023-03-01T04:56:35;1.80;49.80
67050;DHT22;53955;52.442;13.284;2023-03-01T04:59:02;1.60;50.50
67050;DHT22;53955;52.442;13.284;2023-03-01T05:01:32;1.70;50.10
67050;DHT22;53955;52.442;13.284;2023-03-01T05:04:01;1.70;49.90
67050;DHT22;53955;52.442;13.284;2023-03-01T05:06:28;1.70;49.20
67050;DHT22;53955;52.442;13.284;2023-03-01T05:08:55;1.80;49.00
67050;DHT22;53955;52.442;13.284;2023-03-01T05:11:21;1.90;48.50
67050;DHT22;53955;52.442;13.284;2023-03-01T05:13:48;1.80;49.50
67050;DHT22;53955;52.442;13.284;2023-03-01T05:16:20;1.80;50.10
67050;DHT22;53955;52.442;13.284;2023-03-01T05:18:48;1.50;49.50
67050;DHT22;53955;52.442;13.284;2023-03-01T05:21:16;1.50;50.10
67050;DHT22;53955;52.442;13.284;2023-03-01T05:23:42;1.60;50.30
67050;DHT22;53955;52.442;13.284;2023-03-01T05:26:09;1.40;50.20
67050;DHT22;53955;52.442;13.284;2023-03-01T05:28:38;1.50;50.00
67050;DHT22;53955;52.442;13.284;2023-03-01T05:31:05;1.60;50.40
67050;DHT22;53955;52.442;13.284;2023-03-01T05:33:35;1.70;50.30
67050;DHT22;53955;52.442;13.284;2023-03-01T05:36:04;1.60;50.00
67050;DHT22;53955;52.442;13.284;2023-03-01T05:38:31;1.50;49.50
67050;DHT22;53955;52.442;13.284;2023-03-01T05:40:58;1.50;49.70
67050;DHT22;53955;52.442;13.284;2023-03-01T05:43:25;1.60;50.50
67050;DHT22;53955;52.442;13.284;2023-03-01T05:45:52;1.60;50.60
67050;DHT22;53955;52.442;13.284;2023-03-01T05:48:18;1.50;50.50
67050;DHT22;53955;52.442;13.284;2023-03-01T05:50:46;1.40;50.90
67050;DHT22;53955;52.442;13.284;2023-03-01T05:53:15;1.50;50.90
67050;DHT22;53955;52.442;13.284;2023-03-01T05:55:43;1.60;51.40
67050;DHT22;53955;52.442;13.284;2023-03-01T05:58:12;1.60;51.10
67050;DHT22;53955;52.442;13.284;2023-03-01T06:00:40;1.80;50.60
67050;DHT22;53955;52.442;13.284;2023-03-01T06:03:10;1.70;51.70
67050;DHT22;53955;52.442;13.284;2023-03-01T06:05:37;1.70;51.00
67050;DHT22;53955;52.442;13.284;2023-03-01T06:08:04;1.60;50.40
67050;DHT22;53955;52.442;13.284;2023-03-01T06:10:32;1.70;50.90
67050;DHT22;53955;52.442;13.284;2023-03-01T06:12:59;1.60;50.10
67050;DHT22;53955;52.442;13.284;2023-03-01T06:15:26;2.00;49.60
67050;DHT22;53955;52.442;13.284;2023-03-01T06:17:54;2.30;49.10
67050;DHT22;53955;52.442;13.284;2023-03-01T06:20:24;2.60;47.40
67050;DHT22;53955;52.442;13.284;2023-03-01T06:22:51;2.80;47.40
67050;DHT22;53955;52.442;13.284;2023-03-01T06:25:19;3.10;46.70
67050;DHT22;53955;52.442;13.284;2023-03-01T06:27:48;3.20;46.50
67050;DHT22;53955;52.442;13.284;2023-03-01T06:30:16;3.30;46.50
67050;DHT22;53955;52.442;13.284;2023-03-01T06:32:43;3.60;45.60
67050;DHT22;53955;52.442;13.284;2023-03-01T06:35:11;4.30;44.20
67050;DHT22;53955;52.442;13.284;2023-03-01T06:37:38;4.70;42.20
67050;DHT22;53955;52.442;13.284;2023-03-01T06:40:05;5.30;41.10
67050;DHT22;53955;52.442;13.284;2023-03-01T06:42:33;5.40;40.90
67050;DHT22;53955;52.442;13.284;2023-03-01T06:45:01;5.40;40.60
67050;DHT22;53955;52.442;13.284;2023-03-01T06:47:28;5.40;40.30
67050;DHT22;53955;52.442;13.284;2023-03-01T06:49:54;5.70;40.30
67050;DHT22;53955;52.442;13.284;2023-03-01T06:52:21;5.70;39.60
67050;DHT22;53955;52.442;13.284;2023-03-01T06:54:47;6.20;39.20
67050;DHT22;53955;52.442;13.284;2023-03-01T06:57:14;6.70;38.20
67050;DHT22;53955;52.442;13.284;2023-03-01T06:59:41;7.50;36.80
67050;DHT22;53955;52.442;13.284;2023-03-01T07:02:10;8.70;33.80
67050;DHT22;53955;52.442;13.284;2023-03-01T07:04:37;10.40;31.30
67050;DHT22;53955;52.442;13.284;2023-03-01T07:07:04;12.60;28.20
67050;DHT22;53955;52.442;13.284;2023-03-01T07:09:31;14.30;24.60
67050;DHT22;53955;52.442;13.284;2023-03-01T07:11:57;15.30;22.60
67050;DHT22;53955;52.442;13.284;2023-03-01T07:14:24;16.00;19.50
67050;DHT22;53955;52.442;13.284;2023-03-01T07:16:51;16.40;19.40
67050;DHT22;53955;52.442;13.284;2023-03-01T07:19:19;16.50;18.60
67050;DHT22;53955;52.442;13.284;2023-03-01T07:21:46;16.80;18.40
67050;DHT22;53955;52.442;13.284;2023-03-01T07:24:13;17.80;17.50
67050;DHT22;53955;52.442;13.284;2023-03-01T07:26:40;18.70;15.30
67050;DHT22;53955;52.442;13.284;2023-03-01T07:29:08;19.50;14.10
67050;DHT22;53955;52.442;13.284;2023-03-01T07:31:36;20.50;12.60
67050;DHT22;53955;52.442;13.284;2023-03-01T07:34:03;21.20;11.60
67050;DHT22;53955;52.442;13.284;2023-03-01T07:36:30;22.20;9.50
67050;DHT22;53955;52.442;13.284;2023-03-01T07:38:57;22.50;9.50
67050;DHT22;53955;52.442;13.284;2023-03-01T07:41:24;22.90;9.20
67050;DHT22;53955;52.442;13.284;2023-03-01T07:43:51;23.60;8.10
67050;DHT22;53955;52.442;13.284;2023-03-01T07:46:17;24.00;8.10
67050;DHT22;53955;52.442;13.284;2023-03-01T07:48:44;24.40;8.10
67050;DHT22;53955;52.442;13.284;2023-03-01T07:51:11;24.60;7.30
67050;DHT22;53955;52.442;13.284;2023-03-01T07:53:39;24.50;7.10
67050;DHT22;53955;52.442;13.284;2023-03-01T07:56:07;25.00;6.80
67050;DHT22;53955;52.442;13.284;2023-03-01T07:58:34;25.10;6.70
67050;DHT22;53955;52.442;13.284;2023-03-01T08:01:02;25.80;5.60
67050;DHT22;53955;52.442;13.284;2023-03-01T08:03:28;26.50;5.50
67050;DHT22;53955;52.442;13.284;2023-03-01T08:05:55;26.10;4.50
67050;DHT22;53955;52.442;13.284;2023-03-01T08:08:22;25.30;5.00
67050;DHT22;53955;52.442;13.284;2023-03-01T08:10:50;24.40;5.40
67050;DHT22;53955;52.442;13.284;2023-03-01T08:13:16;23.50;5.50
67050;DHT22;53955;52.442;13.284;2023-03-01T08:15:47;21.80;6.60
67050;DHT22;53955;52.442;13.284;2023-03-01T08:18:14;21.20;7.40
67050;DHT22;53955;52.442;13.284;2023-03-01T08:20:40;21.70;6.30
67050;DHT22;53955;52.442;13.284;2023-03-01T08:23:07;21.70;5.80
67050;DHT22;53955;52.442;13.284;2023-03-01T08:25:33;20.90;8.00
67050;DHT22;53955;52.442;13.284;2023-03-01T08:28:01;20.50;8.40
67050;DHT22;53955;52.442;13.284;2023-03-01T08:30:28;21.20;7.00
67050;DHT22;53955;52.442;13.284;2023-03-01T08:32:55;22.50;5.00
67050;DHT22;53955;52.442;13.284;2023-03-01T08:35:22;21.80;5.50
67050;DHT22;53955;52.442;13.284;2023-03-01T08:37:48;20.60;7.60
67050;DHT22;53955;52.442;13.284;2023-03-01T08:40:15;19.70;8.90
67050;DHT22;53955;52.442;13.284;2023-03-01T08:42:42;19.90;8.80
67050;DHT22;53955;52.442;13.284;2023-03-01T08:45:11;21.30;6.20
67050;DHT22;53955;52.442;13.284;2023-03-01T08:47:38;20.30;7.50
67050;DHT22;53955;52.442;13.284;2023-03-01T08:50:04;19.90;8.50
67050;DHT22;53955;52.442;13.284;2023-03-01T08:52:32;20.60;7.90
67050;DHT22;53955;52.442;13.284;2023-03-01T08:54:59;22.40;4.90
67050;DHT22;53955;52.442;13.284;2023-03-01T08:57:26;24.00;4.20
67050;DHT22;53955;52.442;13.284;2023-03-01T08:59:53;23.60;4.30
67050;DHT22;53955;52.442;13.284;2023-03-01T09:02:22;23.00;4.80
67050;DHT22;53955;52.442;13.284;2023-03-01T09:04:49;22.30;5.40
67050;DHT22;53955;52.442;13.284;2023-03-01T09:07:15;21.90;4.80
67050;DHT22;53955;52.442;13.284;2023-03-01T09:09:42;21.80;4.70
67050;DHT22;53955;52.442;13.284;2023-03-01T09:12:08;21.40;5.30
67050;DHT22;53955;52.442;13.284;2023-03-01T09:14:35;21.20;5.30
67050;DHT22;53955;52.442;13.284;2023-03-01T09:17:04;21.50;5.20
67050;DHT22;53955;52.442;13.284;2023-03-01T09:19:32;22.90;3.70
67050;DHT22;53955;52.442;13.284;2023-03-01T09:21:58;22.90;3.70
67050;DHT22;53955;52.442;13.284;2023-03-01T09:24:25;22.40;3.40
67050;DHT22;53955;52.442;13.284;2023-03-01T09:26:53;22.40;4.00
67050;DHT22;53955;52.442;13.284;2023-03-01T09:29:20;21.60;4.20
67050;DHT22;53955;52.442;13.284;2023-03-01T09:31:47;20.10;6.50
67050;DHT22;53955;52.442;13.284;2023-03-01T09:34:13;18.20;8.30
67050;DHT22;53955;52.442;13.284;2023-03-01T09:36:42;16.70;11.20
67050;DHT22;53955;52.442;13.284;2023-03-01T09:39:09;16.30;10.40
67050;DHT22;53955;52.442;13.284;2023-03-01T09:41:45;15.50;11.60
67050;DHT22;53955;52.442;13.284;2023-03-01T09:44:18;14.80;13.90
67050;DHT22;53955;52.442;13.284;2023-03-01T09:46:47;13.80;14.20
67050;DHT22;53955;52.442;13.284;2023-03-01T09:49:17;13.40;16.30
67050;DHT22;53955;52.442;13.284;2023-03-01T09:51:54;13.00;16.70
67050;DHT22;53955;52.442;13.284;2023-03-01T09:54:21;12.80;17.50
67050;DHT22;53955;52.442;13.284;2023-03-01T09:56:57;12.70;18.00
67050;DHT22;53955;52.442;13.284;2023-03-01T09:59:29;12.70;17.80
67050;DHT22;53955;52.442;13.284;2023-03-01T10:01:59;12.70;17.90
67050;DHT22;53955;52.442;13.284;2023-03-01T10:04:31;12.60;17.30
67050;DHT22;53955;52.442;13.284;2023-03-01T10:07:07;12.40;18.30
67050;DHT22;53955;52.442;13.284;2023-03-01T10:09:43;12.10;19.00
67050;DHT22;53955;52.442;13.284;2023-03-01T10:12:13;11.90;19.90
67050;DHT22;53955;52.442;13.284;2023-03-01T10:14:48;11.70;18.90
67050;DHT22;53955;52.442;13.284;2023-03-01T10:17:25;11.80;19.00
67050;DHT22;53955;52.442;13.284;2023-03-01T10:19:53;11.90;19.50
67050;DHT22;53955;52.442;13.284;2023-03-01T10:22:24;11.80;19.00
67050;DHT22;53955;52.442;13.284;2023-03-01T10:24:51;11.70;18.70
67050;DHT22;53955;52.442;13.284;2023-03-01T10:27:19;11.70;18.90
67050;DHT22;53955;52.442;13.284;2023-03-01T10:29:48;11.80;19.80
67050;DHT22;53955;52.442;13.284;2023-03-01T10:32:17;11.80;19.00
67050;DHT22;53955;52.442;13.284;2023-03-01T10:34:43;11.80;18.60
67050;DHT22;53955;52.442;13.284;2023-03-01T10:37:12;11.60;20.10
67050;DHT22;53955;52.442;13.284;2023-03-01T10:42:25;12.10;20.20
67050;DHT22;53955;52.442;13.284;2023-03-01T10:44:52;12.20;19.10
67050;DHT22;53955;52.442;13.284;2023-03-01T10:47:20;12.40;19.30
67050;DHT22;53955;52.442;13.284;2023-03-01T10:49:54;12.60;19.60
67050;DHT22;53955;52.442;13.284;2023-03-01T10:52:23;12.60;18.40
67050;DHT22;53955;52.442;13.284;2023-03-01T10:54:53;12.30;17.60
67050;DHT22;53955;52.442;13.284;2023-03-01T10:57:32;12.20;17.10
67050;DHT22;53955;52.442;13.284;2023-03-01T11:00:21;11.90;17.90
67050;DHT22;53955;52.442;13.284;2023-03-01T11:02:50;12.00;19.00
67050;DHT22;53955;52.442;13.284;2023-03-01T11:05:21;12.00;19.30
67050;DHT22;53955;52.442;13.284;2023-03-01T11:07:50;12.10;18.40
67050;DHT22;53955;52.442;13.284;2023-03-01T11:10:20;12.10;19.60
67050;DHT22;53955;52.442;13.284;2023-03-01T11:12:48;11.90;19.20
67050;DHT22;53955;52.442;13.284;2023-03-01T11:15:19;12.00;19.80
67050;DHT22;53955;52.442;13.284;2023-03-01T11:17:47;12.10;19.70
67050;DHT22;53955;52.442;13.284;2023-03-01T11:20:20;12.10;18.50
67050;DHT22;53955;52.442;13.284;2023-03-01T11:22:53;11.90;18.70
67050;DHT22;53955;52.442;13.284;2023-03-01T11:25:24;12.00;18.80
67050;DHT22;53955;52.442;13.284;2023-03-01T11:27:54;12.00;16.90
67050;DHT22;53955;52.442;13.284;2023-03-01T11:30:24;12.00;17.10
67050;DHT22;53955;52.442;13.284;2023-03-01T11:32:59;11.90;18.60
67050;DHT22;53955;52.442;13.284;2023-03-01T11:35:28;12.10;19.50
67050;DHT22;53955;52.442;13.284;2023-03-01T11:38:04;12.20;17.90
67050;DHT22;53955;52.442;13.284;2023-03-01T11:40:34;12.30;17.70
67050;DHT22;53955;52.442;13.284;2023-03-01T11:43:06;12.00;16.20
67050;DHT22;53955;52.442;13.284;2023-03-01T11:45:39;11.70;16.80
67050;DHT22;53955;52.442;13.284;2023-03-01T11:48:28;11.70;17.20
67050;DHT22;53955;52.442;13.284;2023-03-01T11:50:57;11.70;17.40
67050;DHT22;53955;52.442;13.284;2023-03-01T11:53:38;11.90;17.40
67050;DHT22;53955;52.442;13.284;2023-03-01T11:56:16;12.10;16.80
67050;DHT22;53955;52.442;13.284;2023-03-01T11:59:02;12.30;17.20
67050;DHT22;53955;52.442;13.284;2023-03-01T12:01:35;12.10;17.00
67050;DHT22;53955;52.442;13.284;2023-03-01T12:04:11;11.90;17.40
67050;DHT22;53955;52.442;13.284;2023-03-01T12:06:49;11.80;17.40
67050;DHT22;53955;52.442;13.284;2023-03-01T12:09:23;11.70;18.90
67050;DHT22;53955;52.442;13.284;2023-03-01T12:12:13;11.80;19.00
67050;DHT22;53955;52.442;13.284;2023-03-01T12:14:59;11.80;17.10
67050;DHT22;53955;52.442;13.284;2023-03-01T12:17:47;11.70;17.70
67050;DHT22;53955;52.442;13.284;2023-03-01T12:20:27;11.80;18.30
67050;DHT22;53955;52.442;13.284;2023-03-01T12:23:12;11.50;18.20
67050;DHT22;53955;52.442;13.284;2023-03-01T12:25:46;11.60;17.70
67050;DHT22;53955;52.442;13.284;2023-03-01T12:28:40;11.60;18.10
67050;DHT22;53955;52.442;13.284;2023-03-01T12:31:34;11.70;18.80
67050;DHT22;53955;52.442;13.284;2023-03-01T12:34:15;12.00;18.30
67050;DHT22;53955;52.442;13.284;2023-03-01T12:39:51;11.80;17.30
67050;DHT22;53955;52.442;13.284;2023-03-01T12:42:25;11.70;17.40
67050;DHT22;53955;52.442;13.284;2023-03-01T12:45:12;11.70;16.70
67050;DHT22;53955;52.442;13.284;2023-03-01T12:47:55;11.70;17.10
67050;DHT22;53955;52.442;13.284;2023-03-01T12:50:29;11.80;16.10
67050;DHT22;53955;52.442;13.284;2023-03-01T12:52:59;11.60;15.50
67050;DHT22;53955;52.442;13.284;2023-03-01T12:55:29;11.60;15.20
67050;DHT22;53955;52.442;13.284;2023-03-01T12:58:02;11.70;15.30
67050;DHT22;53955;52.442;13.284;2023-03-01T13:00:35;11.80;14.50
67050;DHT22;53955;52.442;13.284;2023-03-01T13:03:19;11.60;13.90
67050;DHT22;53955;52.442;13.284;2023-03-01T13:06:00;11.80;15.40
67050;DHT22;53955;52.442;13.284;2023-03-01T13:08:31;11.90;15.20
67050;DHT22;53955;52.442;13.284;2023-03-01T13:11:01;11.90;15.50
67050;DHT22;53955;52.442;13.284;2023-03-01T13:13:29;11.90;15.30
67050;DHT22;53955;52.442;13.284;2023-03-01T13:15:57;11.80;15.60
67050;DHT22;53955;52.442;13.284;2023-03-01T13:18:32;11.90;14.10
67050;DHT22;53955;52.442;13.284;2023-03-01T13:21:03;11.70;14.70
67050;DHT22;53955;52.442;13.284;2023-03-01T13:23:34;11.80;13.80
67050;DHT22;53955;52.442;13.284;2023-03-01T13:26:02;11.90;12.40
67050;DHT22;53955;52.442;13.284;2023-03-01T13:28:48;11.80;12.70
67050;DHT22;53955;52.442;13.284;2023-03-01T13:34:48;11.60;12.80
67050;DHT22;53955;52.442;13.284;2023-03-01T13:37:35;11.60;14.20
67050;DHT22;53955;52.442;13.284;2023-03-01T13:43:26;11.80;15.60
67050;DHT22;53955;52.442;13.284;2023-03-01T13:45:54;11.80;14.50
67050;DHT22;53955;52.442;13.284;2023-03-01T13:48:24;11.80;14.00
67050;DHT22;53955;52.442;13.284;2023-03-01T13:50:55;12.00;13.30
67050;DHT22;53955;52.442;13.284;2023-03-01T13:53:26;11.70;13.70
67050;DHT22;53955;52.442;13.284;2023-03-01T13:55:57;11.70;13.20
67050;DHT22;53955;52.442;13.284;2023-03-01T13:58:25;11.70;13.30
67050;DHT22;53955;52.442;13.284;2023-03-01T14:00:56;11.60;13.50
67050;DHT22;53955;52.442;13.284;2023-03-01T14:03:23;11.80;14.20
67050;DHT22;53955;52.442;13.284;2023-03-01T14:06:13;11.80;14.30
67050;DHT22;53955;52.442;13.284;2023-03-01T14:08:41;12.10;14.60
67050;DHT22;53955;52.442;13.284;2023-03-01T14:11:26;12.20;12.20
67050;DHT22;53955;52.442;13.284;2023-03-01T14:14:01;12.00;12.70
67050;DHT22;53955;52.442;13.284;2023-03-01T14:16:37;11.90;13.40
67050;DHT22;53955;52.442;13.284;2023-03-01T14:19:14;11.70;13.80
67050;DHT22;53955;52.442;13.284;2023-03-01T14:21:44;11.60;12.70
67050;DHT22;53955;52.442;13.284;2023-03-01T14:24:16;11.80;12.80
67050;DHT22;53955;52.442;13.284;2023-03-01T14:26:43;11.80;13.40
67050;DHT22;53955;52.442;13.284;2023-03-01T14:29:22;11.70;13.30
67050;DHT22;53955;52.442;13.284;2023-03-01T14:31:49;11.80;13.30
67050;DHT22;53955;52.442;13.284;2023-03-01T14:34:18;11.70;14.10
67050;DHT22;53955;52.442;13.284;2023-03-01T14:36:46;11.60;14.60
67050;DHT22;53955;52.442;13.284;2023-03-01T14:39:16;11.50;13.10
67050;DHT22;53955;52.442;13.284;2023-03-01T14:41:43;11.50;13.30
67050;DHT22;53955;52.442;13.284;2023-03-01T14:44:12;11.10;14.30
67050;DHT22;53955;52.442;13.284;2023-03-01T14:46:40;11.30;14.00
67050;DHT22;53955;52.442;13.284;2023-03-01T14:49:09;11.50;14.00
67050;DHT22;53955;52.442;13.284;2023-03-01T14:51:37;11.70;13.50
67050;DHT22;53955;52.442;13.284;2023-03-01T14:54:10;11.70;14.10
67050;DHT22;53955;52.442;13.284;2023-03-01T14:56:44;11.70;13.90
67050;DHT22;53955;52.442;13.284;2023-03-01T14:59:11;11.60;13.20
67050;DHT22;53955;52.442;13.284;2023-03-01T15:01:38;11.60;16.00
67050;DHT22;53955;52.442;13.284;2023-03-01T15:04:06;11.70;14.30
67050;DHT22;53955;52.442;13.284;2023-03-01T15:06:35;11.70;14.30
67050;DHT22;53955;52.442;13.284;2023-03-01T15:09:02;11.70;14.70
67050;DHT22;53955;52.442;13.284;2023-03-01T15:11:31;11.70;14.00
67050;DHT22;53955;52.442;13.284;2023-03-01T15:13:58;11.80;13.70
67050;DHT22;53955;52.442;13.284;2023-03-01T15:16:25;11.60;14.20
67050;DHT22;53955;52.442;13.284;2023-03-01T15:18:53;11.50;16.50
67050;DHT22;53955;52.442;13.284;2023-03-01T15:21:21;11.60;15.50
67050;DHT22;53955;52.442;13.284;2023-03-01T15:23:50;11.40;13.90
67050;DHT22;53955;52.442;13.284;2023-03-01T15:26:21;11.30;14.20
67050;DHT22;53955;52.442;13.284;2023-03-01T15:28:50;11.40;16.10
67050;DHT22;53955;52.442;13.284;2023-03-01T15:31:18;11.70;16.50
67050;DHT22;53955;52.442;13.284;2023-03-01T15:33:46;11.80;15.50
67050;DHT22;53955;52.442;13.284;2023-03-01T15:38:55;11.60;15.20
67050;DHT22;53955;52.442;13.284;2023-03-01T15:41:22;11.60;14.80
67050;DHT22;53955;52.442;13.284;2023-03-01T15:43:50;11.30;16.20
67050;DHT22;53955;52.442;13.284;2023-03-01T15:46:23;11.30;15.90
67050;DHT22;53955;52.442;13.284;2023-03-01T15:48:51;11.30;16.50
67050;DHT22;53955;52.442;13.284;2023-03-01T15:51:19;11.40;16.80
67050;DHT22;53955;52.442;13.284;2023-03-01T15:53:49;11.30;16.90
67050;DHT22;53955;52.442;13.284;2023-03-01T15:56:16;11.30;16.20